^^
Datos históricos de la estación: Murcia-Puente Tocinos
Diario Informe para Junio 23, 2019 Unidades:  Ingés    Métrico   Ambas
Diario Semanal Mensual Anual
  Máxima: Mínima: Promedio:
Temperatura: 85.6 °F 70.2 °F 77.7 °F
Punto de rocio: 69.4 °F 57.4 °F 64.8 °F
Humedad: 83% 39.5% 66%
Velocidad viento: 11.2mph 0mph 4.7mph
Racha viento: 21mph - -
Viento- - SE
Presión: 30.1 in 30 in -
Precipitación: 0 in    
 
 
Tabla de datos para Junio 23, 2019
Hora Temperatura Punto de rocio Presión Viento Velocidad viento Racha viento Humedad Intensidad lluvia(por hora) Nubes
00:04 75.6 °F 69.1 °F 30.1 in Calm   3 mph 80.4% 0 in
00:09 75.6 °F 69.3 °F 30.1 in Calm   1.4 mph 81% 0 in
00:14 75.6 °F 69.3 °F 30.1 in Calm   1.4 mph 81% 0 in
00:19 75.6 °F 69.3 °F 30.1 in Calm   2.9 mph 81% 0 in
00:24 75.6 °F 69.3 °F 30.1 in Calm   3 mph 81% 0 in
00:29 75.6 °F 69.3 °F 30.1 in NNE 0.4 mph 3 mph 81% 0 in
00:34 75.7 °F 69.4 °F 30.1 in NNE 1.4 mph 3.5 mph 81% 0 in
00:39 75.6 °F 69.3 °F 30.1 in North 1.4 mph 3.6 mph 81% 0 in
00:44 75.6 °F 69.3 °F 30.1 in NO 1.4 mph 4 mph 81% 0 in
00:49 75.6 °F 69.3 °F 30.1 in NO 1.5 mph 3 mph 81% 0 in
00:54 75.4 °F 69.1 °F 30.1 in NO 1.8 mph 3.5 mph 81% 0 in
00:59 75.4 °F 69.1 °F 30.1 in NO 1.3 mph 3 mph 81% 0 in
01:04 75.4 °F 69.1 °F 30.1 in Calm   1 mph 80.9% 0 in
01:09 75.4 °F 68.7 °F 30.1 in Calm   3.5 mph 80% 0 in
01:14 75.4 °F 68.7 °F 30.1 in Calm   3 mph 80% 0 in
01:19 75.2 °F 68.7 °F 30.1 in Oeste 0.4 mph 4.6 mph 80% 0 in
01:24 75 °F 68.9 °F 30.1 in Oeste 1.4 mph 5 mph 80.9% 0 in
01:29 74.8 °F 68.7 °F 30.1 in Oeste 1.7 mph 5 mph 81% 0 in
01:34 74.8 °F 68.5 °F 30.1 in Oeste 2.9 mph 5 mph 81% 0 in
01:39 74.7 °F 68.7 °F 30.1 in Oeste 2.7 mph 5 mph 82% 0 in
01:44 74.7 °F 68.7 °F 30.1 in Oeste 2 mph 5 mph 82% 0 in
01:49 74.7 °F 68.7 °F 30.1 in Oeste 1.5 mph   82% 0 in
01:54 74.7 °F 68.9 °F 30.1 in Calm     82% 0 in
01:59 74.7 °F 68.9 °F 30.1 in Calm   3.5 mph 82% 0 in
02:04 74.7 °F 68.7 °F 30.1 in Calm   3.6 mph 82% 0 in
02:09 74.7 °F 68.7 °F 30.1 in NNO 0.5 mph 4 mph 82% 0 in
02:14 74.7 °F 68.7 °F 30.1 in NNO 2 mph 3 mph 82% 0 in
02:19 74.7 °F 68.7 °F 30.1 in NNO 1.6 mph   82% 0 in
02:24 74.5 °F 68.5 °F 30.1 in Calm   4.6 mph 82% 0 in
02:29 74.5 °F 68.5 °F 30.1 in Oeste 0.4 mph 5 mph 82% 0 in
02:34 74.3 °F 68.4 °F 30.1 in Oeste 1.8 mph 4 mph 82% 0 in
02:39 74.1 °F 68.4 °F 30.1 in Oeste 1.9 mph 5 mph 82% 0 in
02:44 74.1 °F 68.4 °F 30.1 in Oeste 2.4 mph 5 mph 82.2% 0 in
02:49 74.1 °F 68.4 °F 30.1 in ONO 2.2 mph 4 mph 82.5% 0 in
02:54 74.1 °F 68.5 °F 30.1 in ONO 1.8 mph 4 mph 83% 0 in
02:59 74.1 °F 68.5 °F 30.1 in ONO 1.3 mph 2.3 mph 82.8% 0 in
03:04 73.9 °F 68.2 °F 30.1 in Calm   2 mph 82% 0 in
03:09 73.9 °F 68.2 °F 30.1 in Calm     82% 0 in
03:14 73.9 °F 68.2 °F 30.1 in Calm     82% 0 in
03:19 73.8 °F 68 °F 30.1 in Calm     82% 0 in
03:24 73.8 °F 67.8 °F 30.1 in Calm     82% 0 in
03:29 73.8 °F 68 °F 30.1 in Calm     82.4% 0 in
03:34 73.8 °F 68.2 °F 30.1 in Calm     83% 0 in
03:39 73.6 °F 68.2 °F 30.1 in Calm     83% 0 in
03:44 73.6 °F 68.2 °F 30.1 in Calm     83% 0 in
03:49 73.8 °F 68.2 °F 30.1 in Calm     83% 0 in
03:54 73.8 °F 68.4 °F 30.1 in Calm   4.7 mph 83% 0 in
03:59 73.8 °F 68.4 °F 30.1 in Oeste 0.5 mph 5 mph 83% 0 in
04:04 73.8 °F 68.4 °F 30.1 in Oeste 1.8 mph 5.2 mph 83% 0 in
04:09 73.8 °F 68.2 °F 30.1 in Oeste 2.1 mph 5.9 mph 83% 0 in
04:14 73.6 °F 68.2 °F 30.1 in Oeste 3.1 mph 6.9 mph 83% 0 in
04:19 73.6 °F 68.2 °F 30.1 in Oeste 3.3 mph 8.5 mph 83% 0 in
04:24 73.6 °F 68.2 °F 30.1 in Oeste 4 mph 9 mph 83% 0 in
04:29 73.6 °F 68.2 °F 30.1 in ONO 4.1 mph 7 mph 83% 0 in
04:34 73.6 °F 68.2 °F 30.1 in Oeste 4.3 mph 7 mph 83% 0 in
04:39 73.6 °F 68.2 °F 30.1 in Oeste 4 mph 7 mph 83% 0 in
04:44 73.6 °F 68.2 °F 30.1 in OSO 3.1 mph 5 mph 83% 0 in
04:49 73.4 °F 68 °F 30.1 in OSO 3 mph 5 mph 83% 0 in
04:54 73.4 °F 67.8 °F 30.1 in OSO 2.9 mph 5 mph 83% 0 in
04:59 73.4 °F 67.8 °F 30.1 in SO 2.7 mph 5 mph 83% 0 in
05:04 73.2 °F 67.6 °F 30.1 in SO 2.4 mph 5.9 mph 82.6% 0 in
05:09 73 °F 67.3 °F 30.1 in Sur 2.7 mph 6.2 mph 81.8% 0 in
05:14 72.9 °F 66.6 °F 30.1 in SSO 3.6 mph 6.9 mph 81% 0 in
05:19 72.5 °F 66.2 °F 30.1 in SSO 3.9 mph 7.4 mph 81% 0 in
05:24 72.1 °F 66.2 °F 30.1 in SSO 4.7 mph 7 mph 81.7% 0 in
05:29 72 °F 66.2 °F 30.1 in SSO 4.7 mph 7 mph 82% 0 in
05:34 72 °F 66.2 °F 30.1 in SSO 4.7 mph 7 mph 82% 0 in
05:39 71.8 °F 66 °F 30.1 in SSO 4.8 mph 8.1 mph 82% 0 in
05:44 71.8 °F 66 °F 30.1 in SSO 5.2 mph 8 mph 82.1% 0 in
05:49 71.6 °F 65.8 °F 30.1 in SSO 5.1 mph 7 mph 82.2% 0 in
05:54 71.4 °F 65.8 °F 30.1 in SSO 4.7 mph 7.4 mph 82.4% 0 in
05:59 71.4 °F 65.7 °F 30.1 in SSO 4.8 mph 7 mph 82% 0 in
06:04 71.4 °F 65.7 °F 30.1 in SSO 5.2 mph 7 mph 82% 0 in
06:09 71.4 °F 65.7 °F 30.1 in SSO 4.9 mph 6.2 mph 82% 0 in
06:14 71.2 °F 65.5 °F 30.1 in SO 4 mph 6 mph 82% 0 in
06:19 71.2 °F 65.5 °F 30.1 in SO 4 mph 6.2 mph 82% 0 in
06:24 71.2 °F 65.5 °F 30.1 in SSO 4 mph 6 mph 82% 0 in
06:29 71.1 °F 65.3 °F 30.1 in SO 3.9 mph 6.9 mph 82% 0 in
06:34 71.1 °F 65.3 °F 30.1 in SSO 3.6 mph 7.4 mph 81.8% 0 in
06:39 70.9 °F 64.9 °F 30.1 in SSO 3.8 mph 7 mph 81.6% 0 in
06:44 70.9 °F 65.1 °F 30.1 in SSO 4.3 mph 6.9 mph 82% 0 in
06:49 70.9 °F 65.1 °F 30.1 in SSO 4.3 mph 7 mph 82% 0 in
06:54 70.7 °F 64.9 °F 30.1 in SSO 4.3 mph 8.1 mph 82% 0 in
06:59 70.5 °F 64.8 °F 30.1 in SSO 4.5 mph 8.5 mph 82% 0 in
07:04 70.3 °F 64.8 °F 30.1 in SSO 5.2 mph 9 mph 82% 0 in
07:09 70.3 °F 64.6 °F 30.1 in SSO 5.1 mph 7 mph 82% 0 in
07:14 70.3 °F 64.6 °F 30.1 in SSO 4.7 mph 7 mph 82% 0 in
07:19 70.3 °F 64.6 °F 30.1 in SO 4.5 mph 7 mph 82% 0 in
07:24 70.3 °F 64.6 °F 30.1 in SO 4 mph 8.5 mph 82% 0 in
07:29 70.2 °F 64.4 °F 30.1 in SO 4.2 mph 9 mph 82% 0 in
07:34 70.3 °F 64.6 °F 30.1 in SO 4.7 mph 8 mph 82% 0 in
07:39 70.2 °F 64.4 °F 30.1 in SO 4.4 mph 6 mph 82% 0 in
07:44 70.2 °F 64.4 °F 30.1 in SO 3.6 mph 6.9 mph 82% 0 in
07:49 70.2 °F 64.2 °F 30.1 in SO 3.7 mph 7 mph 82% 0 in
07:54 70.2 °F 64.2 °F 30.1 in OSO 4 mph 7 mph 82% 0 in
07:59 70.2 °F 64.4 °F 30.1 in SO 3.8 mph 6 mph 82% 0 in
08:04 70.2 °F 64.4 °F 30.1 in OSO 3.1 mph 6 mph 81.9% 0 in
08:09 70.2 °F 64 °F 30.1 in OSO 3.1 mph 6 mph 81% 0 in
08:14 70.3 °F 64.2 °F 30.1 in SO 3.1 mph 6 mph 81% 0 in
08:19 70.3 °F 64.2 °F 30.1 in SO 3.1 mph 6 mph 81% 0 in
08:24 70.5 °F 64.4 °F 30.1 in SO 3.1 mph 6.2 mph 81% 0 in
08:29 70.5 °F 64.4 °F 30.1 in OSO 3.3 mph 6.4 mph 81% 0 in
08:34 70.7 °F 64.4 °F 30.1 in OSO 4 mph 7 mph 80.7% 0 in
08:39 70.9 °F 64.4 °F 30.1 in OSO 4 mph 7 mph 80% 0 in
08:44 70.9 °F 64.4 °F 30.1 in Oeste 4 mph 7 mph 80% 0 in
08:49 70.9 °F 64.4 °F 30.1 in OSO 4.1 mph 6.9 mph 80% 0 in
08:54 70.9 °F 64.4 °F 30.1 in OSO 4.3 mph 8.1 mph 80% 0 in
08:59 71.1 °F 64.4 °F 30.1 in OSO 4.3 mph 8 mph 79.4% 0 in
09:04 71.2 °F 64.4 °F 30.1 in OSO 4.3 mph 8.5 mph 79% 0 in
09:09 71.2 °F 64.6 °F 30.1 in OSO 4.4 mph 9 mph 79% 0 in
09:14 71.8 °F 64.6 °F 30.1 in OSO 4.7 mph 7 mph 77.9% 0 in
09:19 72.1 °F 64.4 °F 30.1 in SO 4.5 mph 7 mph 76.9% 0 in
09:24 72.3 °F 64.4 °F 30.1 in OSO 4 mph 8.1 mph 76.2% 0 in
09:29 72.7 °F 64.4 °F 30.1 in OSO 4.3 mph 9.2 mph 75.4% 0 in
09:34 72.9 °F 64.4 °F 30.1 in SO 5.2 mph 9.2 mph 74.9% 0 in
09:39 73 °F 64.2 °F 30.1 in SO 5.2 mph 9 mph 73.6% 0 in
09:44 73 °F 64.2 °F 30.1 in OSO 5.4 mph 7 mph 73.6% 0 in
09:49 73.2 °F 64 °F 30.1 in OSO 5 mph 7.4 mph 73% 0 in
09:54 73.6 °F 64.6 °F 30.1 in SO 3.6 mph 7 mph 73.2% 0 in
09:59 73.9 °F 64.2 °F 30.1 in SO 3.5 mph 8.1 mph 71.8% 0 in
10:04 74.1 °F 64.2 °F 30.1 in SO 3.1 mph 8 mph 71.5% 0 in
10:09 74.5 °F 64.6 °F 30.1 in SSO 3.3 mph 8.1 mph 71.4% 0 in
10:14 74.7 °F 64.6 °F 30.1 in SSO 4 mph 8 mph 71% 0 in
10:19 74.7 °F 64.6 °F 30.1 in OSO 4 mph 7 mph 70.6% 0 in
10:24 75 °F 64.6 °F 30.1 in OSO 4 mph 7 mph 70% 0 in
10:29 75.4 °F 64.4 °F 30.1 in OSO 3.9 mph 7 mph 69% 0 in
10:34 75.6 °F 64 °F 30.1 in Oeste 3.6 mph 7.6 mph 67.5% 0 in
10:39 75.7 °F 64 °F 30.1 in ONO 3.7 mph 8.1 mph 67% 0 in
10:44 75.7 °F 63.9 °F 30.1 in OSO 4 mph 6.2 mph 66.6% 0 in
10:49 76.1 °F 63.9 °F 30.1 in SO 4 mph 6.9 mph 66% 0 in
10:54 76.5 °F 64.2 °F 30.1 in SO 4 mph 7 mph 66% 0 in
10:59 76.8 °F 64.2 °F 30.1 in Oeste 3.5 mph 6 mph 65.2% 0 in
11:04 77.4 °F 64.6 °F 30.1 in North 2.4 mph 6 mph 64.8% 0 in
11:09 78.1 °F 64.6 °F 30.1 in SSO 2.2 mph 4.6 mph 63.1% 0 in
11:14 78.6 °F 64.2 °F 30.1 in SSE 1.8 mph 5.2 mph 61.3% 0 in
11:19 79 °F 64.4 °F 30.1 in Sur 2.2 mph 6.9 mph 61% 0 in
11:24 79.3 °F 64.4 °F 30.1 in SO 3.6 mph 7 mph 60.5% 0 in
11:29 79.5 °F 64.8 °F 30.1 in SSO 3.3 mph 5.2 mph 61% 0 in
11:34 79.9 °F 65.7 °F 30.1 in ENE 2.4 mph 8.7 mph 61.8% 0 in
11:39 80.2 °F 64.9 °F 30.1 in NE 2.5 mph 9.2 mph 59.7% 0 in
11:44 80.1 °F 64.9 °F 30.1 in NE 3.1 mph 7 mph 60.2% 0 in
11:49 80.1 °F 64.2 °F 30.1 in ENE 3.3 mph 10.4 mph 58.6% 0 in
11:54 80.2 °F 64 °F 30.1 in NNE 4 mph 10.4 mph 58% 0 in
11:59 80.4 °F 64 °F 30.1 in ENE 4.1 mph 10 mph 57.5% 0 in
12:04 81 °F 64.2 °F 30.1 in Este 4.3 mph 9.2 mph 56.7% 0 in
12:09 81.1 °F 63.3 °F 30.1 in ENE 4.4 mph 10.2 mph 54.6% 0 in
12:14 81 °F 62.4 °F 30.1 in Este 4.7 mph 12.3 mph 53.5% 0 in
12:19 80.8 °F 61.2 °F 30.1 in NE 5.1 mph 13 mph 51.3% 0 in
12:24 81 °F 61.5 °F 30.1 in NE 6.4 mph 13 mph 51.9% 0 in
12:29 81.7 °F 62.8 °F 30.1 in Este 5.6 mph 8.1 mph 53% 0 in
12:34 82 °F 62.2 °F 30.1 in ENE 2.9 mph 10.7 mph 51.2% 0 in
12:39 82.2 °F 61.9 °F 30.1 in NE 3.7 mph 11.5 mph 50.1% 0 in
12:44 82 °F 61.9 °F 30.1 in ENE 6.2 mph 12 mph 50.7% 0 in
12:49 82 °F 61.9 °F 30.1 in ESE 5.8 mph 10.4 mph 50.5% 0 in
12:54 82.8 °F 63 °F 30.1 in ENE 4.7 mph 10 mph 51.4% 0 in
12:59 82.9 °F 63.5 °F 30.1 in NNE 4.7 mph 10 mph 52.2% 0 in
13:04 82.9 °F 62.2 °F 30.1 in Este 4.7 mph 9.2 mph 49.7% 0 in
13:09 82.9 °F 62.1 °F 30.1 in NE 4.7 mph 10.4 mph 49.4% 0 in
13:14 83.3 °F 62.1 °F 30.1 in NE 4.7 mph 10.4 mph 49.1% 0 in
13:19 83.5 °F 61.9 °F 30.1 in ENE 5 mph 11.5 mph 48.2% 0 in
13:24 83.8 °F 61.3 °F 30.1 in Este 6.2 mph 13 mph 46.7% 0 in
13:29 83.8 °F 60.4 °F 30.1 in ENE 6.4 mph 13 mph 45.4% 0 in
13:34 83.8 °F 61.3 °F 30.1 in NE 6.9 mph 12 mph 46.8% 0 in
13:39 83.8 °F 60.6 °F 30.1 in NE 6.7 mph 15 mph 45.5% 0 in
13:44 84.2 °F 60.3 °F 30.1 in ENE 6.2 mph 15 mph 44.4% 0 in
13:49 84 °F 59.9 °F 30.1 in NE 6.5 mph 16.3 mph 44.1% 0 in
13:54 83.8 °F 60.3 °F 30.1 in ENE 7.4 mph 16 mph 45% 0 in
13:59 84.2 °F 59.9 °F 30.1 in Este 7.1 mph 13.8 mph 44.1% 0 in
14:04 84.6 °F 59.4 °F 30.1 in ENE 6.4 mph 14 mph 42.7% 0 in
14:09 84.7 °F 58.8 °F 30.1 in ENE 6.7 mph 14 mph 41.6% 0 in
14:14 84.7 °F 57.4 °F 30.1 in ENE 7.6 mph 15 mph 39.5% 0 in
14:19 84.7 °F 58.1 °F 30.1 in Este 7.8 mph 15 mph 40.6% 0 in
14:24 84.6 °F 59 °F 30.1 in Este 8.5 mph 15.2 mph 42% 0 in
14:29 84.6 °F 59.5 °F 30.1 in ENE 8.3 mph 17.3 mph 43.1% 0 in
14:34 84.6 °F 60.1 °F 30.1 in NE 7.6 mph 17.5 mph 43.5% 0 in
14:39 84.4 °F 58.6 °F 30 in ENE 7.9 mph 17 mph 41.8% 0 in
14:44 84.6 °F 59 °F 30 in ENE 8.7 mph 14 mph 42.2% 0 in
14:49 84.4 °F 59.7 °F 30 in NE 8.4 mph 20.4 mph 43.4% 0 in
14:54 84.2 °F 59.5 °F 30 in NE 7.6 mph 21 mph 43.4% 0 in
14:59 84.4 °F 59.2 °F 30 in ENE 7.9 mph 16 mph 42.7% 0 in
15:04 84.6 °F 60.1 °F 30 in ENE 8.7 mph 18.1 mph 43.7% 0 in
15:09 84.7 °F 58.3 °F 30 in NE 8.7 mph 18.4 mph 40.9% 0 in
15:14 84.7 °F 58.1 °F 30 in ENE 8.7 mph 15 mph 40.5% 0 in
15:19 85.3 °F 59.4 °F 30 in ENE 8.1 mph 13 mph 41.6% 0 in
15:24 85.3 °F 58.6 °F 30 in ENE 6.4 mph 14.5 mph 40.6% 0 in
15:29 84.7 °F 59.7 °F 30 in NE 7.1 mph 20.7 mph 42.9% 0 in
15:34 84.9 °F 60.1 °F 30 in Este 9.2 mph 21 mph 43.3% 0 in
15:39 85.3 °F 59.9 °F 30 in NE 8.8 mph 16 mph 42.5% 0 in
15:44 85.3 °F 59 °F 30 in NE 7.6 mph 18.4 mph 41% 0 in
15:49 85.3 °F 59.4 °F 30 in NE 7.8 mph 18 mph 41.5% 0 in
15:54 85.5 °F 60.1 °F 30 in ENE 8.5 mph 14 mph 42.5% 0 in
15:59 85.6 °F 60.1 °F 30 in NE 8.3 mph 13.8 mph 42.2% 0 in
16:04 85.6 °F 60.4 °F 30 in ENE 7.6 mph 14 mph 42.7% 0 in
16:09 85.6 °F 60.8 °F 30 in ENE 7.6 mph 14 mph 43.3% 0 in
16:14 85.5 °F 61 °F 30 in NE 7.6 mph 15.2 mph 43.9% 0 in
16:19 85.5 °F 61.5 °F 30 in Este 7.3 mph 18.1 mph 44.6% 0 in
16:24 85.3 °F 61.5 °F 30 in ENE 6.4 mph 18.4 mph 45% 0 in
16:29 84.9 °F 61.2 °F 30 in NE 7.5 mph 18 mph 44.8% 0 in
16:34 84.9 °F 61.2 °F 30 in ENE 10.7 mph 16.1 mph 44.9% 0 in
16:39 85.3 °F 61.5 °F 30 in ENE 10 mph 14 mph 45% 0 in
16:44 84.9 °F 61.7 °F 30 in NE 8.1 mph 18.4 mph 45.7% 0 in
16:49 84.9 °F 62.1 °F 30 in NE 8.4 mph 18 mph 46.3% 0 in
16:54 84.9 °F 61.9 °F 30 in NE 9.2 mph 17 mph 46.1% 0 in
16:59 85.1 °F 61.9 °F 30 in NE 8.9 mph 16.1 mph 45.8% 0 in
17:04 85.1 °F 62.4 °F 30 in ENE 8.1 mph 16.3 mph 46.9% 0 in
17:09 85.3 °F 62.8 °F 30 in NE 8.1 mph 16.8 mph 47.1% 0 in
17:14 84.9 °F 63.3 °F 30 in ENE 8.1 mph 17 mph 48.4% 0 in
17:19 84.7 °F 64 °F 30 in ENE 8.4 mph 16.1 mph 49.7% 0 in
17:24 84.7 °F 64 °F 30 in ENE 9.2 mph 19 mph 49.9% 0 in
17:29 84.7 °F 64.4 °F 30 in ENE 8.9 mph 19 mph 50.4% 0 in
17:34 85.1 °F 64.8 °F 30 in ENE 8.1 mph 15.9 mph 50.8% 0 in
17:39 84.7 °F 64.4 °F 30 in ENE 8 mph 16.1 mph 50.7% 0 in
17:44 84.2 °F 64.2 °F 30 in ENE 7.4 mph 16 mph 51.1% 0 in
17:49 84 °F 64.9 °F 30 in ENE 7.8 mph 15 mph 53% 0 in
17:54 83.8 °F 64.4 °F 30 in NE 9.2 mph 17.3 mph 52% 0 in
17:59 83.8 °F 64.2 °F 30 in ENE 8.9 mph 17 mph 51.6% 0 in
18:04 83.8 °F 63.3 °F 30 in NE 8.1 mph 16.1 mph 50% 0 in
18:09 83.8 °F 61.7 °F 30 in NE 8.6 mph 16.1 mph 47.4% 0 in
18:14 83.8 °F 62.6 °F 30 in ENE 10.2 mph 20.7 mph 49% 0 in
18:19 83.8 °F 62.2 °F 30 in NE 9.9 mph 21 mph 48.3% 0 in
18:24 83.7 °F 63.7 °F 30 in NE 9.2 mph 18 mph 51.3% 0 in
18:29 83.5 °F 63.7 °F 30 in NE 9.4 mph 17.3 mph 51.4% 0 in
18:34 83.3 °F 63.1 °F 30 in NE 10.2 mph 17.3 mph 50.8% 0 in
18:39 83.1 °F 63.3 °F 30 in NE 10.2 mph 18.5 mph 51.5% 0 in
18:44 83.1 °F 62.6 °F 30 in NE 10.2 mph 19 mph 50.1% 0 in
18:49 83.1 °F 62.1 °F 30 in NE 10.4 mph 20.8 mph 49.2% 0 in
18:54 82.9 °F 62.1 °F 30 in NE 11.2 mph 21 mph 49.3% 0 in
18:59 82.9 °F 61.9 °F 30 in NE 10.9 mph 17.3 mph 49% 0 in
19:04 82.9 °F 61.7 °F 30 in ENE 10.2 mph 17 mph 48.8% 0 in
19:09 82.9 °F 61.5 °F 30 in NE 9.8 mph 16.1 mph 48.7% 0 in
19:14 82.9 °F 61.2 °F 30 in NE 8.7 mph 16.3 mph 48.1% 0 in
19:19 82.8 °F 62.2 °F 30 in NE 8.8 mph 16 mph 49.9% 0 in
19:24 82.8 °F 62.1 °F 30 in NE 9.2 mph 16.1 mph 49.8% 0 in
19:29 82.6 °F 61.3 °F 30 in NE 9 mph 16 mph 48.7% 0 in
19:34 82.6 °F 61.5 °F 30 in NE 8.5 mph 16.1 mph 48.9% 0 in
19:39 82.4 °F 62.4 °F 30 in ENE 8.4 mph 16 mph 50.9% 0 in
19:44 82 °F 62.8 °F 30 in NE 8.1 mph 15 mph 52% 0 in
19:49 81.9 °F 62.2 °F 30 in NE 8.3 mph 15 mph 51.6% 0 in
19:54 81.9 °F 62.6 °F 30 in NE 8.7 mph 17.3 mph 52.2% 0 in
19:59 81.5 °F 63.1 °F 30 in NE 8.8 mph 17 mph 53.5% 0 in
20:04 81.3 °F 63.1 °F 30 in NE 9.2 mph 17.3 mph 54% 0 in
20:09 81.1 °F 63.7 °F 30 in NE 9 mph 16.1 mph 55.1% 0 in
20:14 81.1 °F 64 °F 30 in ENE 8.5 mph 16 mph 56.2% 0 in
20:19 81 °F 64.4 °F 30 in NE 7.8 mph 12 mph 57% 0 in
20:24 81 °F 64.6 °F 30 in NE 5.9 mph 12.7 mph 57.6% 0 in
20:29 80.6 °F 64.6 °F 30 in ENE 5.9 mph 13 mph 58.3% 0 in
20:34 80.4 °F 64.9 °F 30 in NE 5.9 mph 10.4 mph 59.2% 0 in
20:39 80.2 °F 65.1 °F 30 in ENE 5.5 mph 10 mph 60.2% 0 in
20:44 80.1 °F 65.5 °F 30 in ENE 4.3 mph 10.4 mph 61.5% 0 in
20:49 79.7 °F 65.7 °F 30 in NE 4.6 mph 10.7 mph 62.4% 0 in
20:54 79.3 °F 65.8 °F 30 in NE 5.4 mph 11 mph 63.3% 0 in
20:59 79.2 °F 66 °F 30 in NE 5.5 mph 10.4 mph 64.1% 0 in
21:04 79 °F 66.2 °F 30 in NE 5.9 mph 10 mph 65% 0 in
21:09 78.8 °F 66.4 °F 30 in NE 6 mph 10 mph 65.7% 0 in
21:14 78.6 °F 66.4 °F 30 in NE 6.2 mph 9 mph 66% 0 in
21:19 78.4 °F 66.6 °F 30 in NE 5.8 mph 8.5 mph 66.9% 0 in
21:24 78.3 °F 66.7 °F 30 in NE 4.7 mph 9.2 mph 67.8% 0 in
21:29 78.1 °F 66.9 °F 30 in NE 5 mph 9.2 mph 68.7% 0 in
21:34 77.9 °F 66.9 °F 30 in NE 5.9 mph 9 mph 69.2% 0 in
21:39 77.7 °F 67.3 °F 30 in NE 5.7 mph 9.7 mph 70% 0 in
21:44 77.7 °F 67.1 °F 30 in NE 5.2 mph 10 mph 70% 0 in
21:49 77.5 °F 66.9 °F 30 in NE 5.2 mph 9.7 mph 70% 0 in
21:54 77.5 °F 67.3 °F 30 in NE 5.4 mph 10 mph 70.8% 0 in
21:59 77.5 °F 67.5 °F 30 in NE 5.4 mph 8.5 mph 71% 0 in
22:04 77.5 °F 67.5 °F 30 in NE 5.4 mph 9 mph 71% 0 in
22:09 77.5 °F 67.3 °F 30 in NE 5.3 mph 8 mph 71% 0 in
22:14 77.4 °F 67.3 °F 30 in NE 5.2 mph 7.4 mph 71% 0 in
22:19 77.4 °F 67.3 °F 30 in NE 5 mph 7 mph 71% 0 in
22:24 77.4 °F 67.3 °F 30 in NE 4.3 mph 7 mph 71% 0 in
22:29 77.4 °F 67.1 °F 30 in NE 4 mph 5 mph 71% 0 in
22:34 77.2 °F 66.9 °F 30 in NE 2.9 mph 5.2 mph 71% 0 in
22:39 77.2 °F 67.3 °F 30 in NE 2.9 mph 5 mph 71.5% 0 in
22:44 77.2 °F 67.5 °F 30 in NNE 2.9 mph 5 mph 72% 0 in
22:49 77 °F 67.3 °F 30 in NE 2.7 mph 5 mph 72% 0 in
22:54 77 °F 67.3 °F 30 in NE 2.4 mph 5 mph 72% 0 in
22:59 76.8 °F 67.1 °F 30 in ENE 2.4 mph 5 mph 72% 0 in
23:04 76.8 °F 67.1 °F 30 in ENE 2.4 mph 5 mph 72% 0 in
23:09 76.8 °F 67.1 °F 30 in NE 1.9 mph 2.3 mph 72% 0 in
23:14 76.8 °F 67.5 °F 30 in Calm   2.3 mph 72.8% 0 in
23:19 76.6 °F 67.3 °F 30 in Calm   2 mph 73% 0 in
23:24 76.6 °F 67.3 °F 30 in Calm   2.3 mph 73% 0 in
23:29 76.6 °F 67.3 °F 30 in Calm   2.3 mph 73% 0 in
23:34 76.6 °F 67.3 °F 30 in Calm   2.3 mph 73% 0 in
23:39 76.6 °F 67.3 °F 30 in Calm   2.3 mph 73% 0 in
23:44 76.6 °F 67.3 °F 30 in Calm   2.9 mph 73% 0 in
23:49 76.6 °F 67.3 °F 30 in Calm   3 mph 73% 0 in
23:54 76.5 °F 67.3 °F 30 in Calm     73% 0 in
23:59 76.5 °F 67.3 °F 30 in Calm     73% 0 in
Murcia-Puente Tocinos, España
Compliments of Weather Underground - 2.75 mb

La estación de MeteoMurcia.com, publica sus datos en los siguientes proyectos:

Weather Underground PWS IMURCIAP2 Meteoclimatic www.awekas.at

W3Counter
Web Analytics